Time;durP1;ratioP1;P1;durP2;ratioP2;P2;SDS_P1;SDS_P2;PMS_P1;PMS_P2;Temp;Humidity;BMP_temperature;BMP_pressure;BME280_temperature;BME280_humidity;BME280_pressure;Samples;Min_cycle;Max_cycle;Signal;HPM_P1;HPM_P2
2022/10/02 00:01:58;;;;;;;11.70;1.67;;;13.90;99.90;;;;;;5015967;28;20048;-83
2022/10/02 00:04:36;;;;;;;13.45;1.48;;;14.00;99.90;;;;;;4995136;28;20067;-83
2022/10/02 00:07:09;;;;;;;9.38;1.58;;;14.00;99.90;;;;;;5035855;28;20136;-85
2022/10/02 00:09:52;;;;;;;8.38;1.23;;;13.90;99.90;;;;;;5020082;28;20037;-85
2022/10/02 00:12:22;;;;;;;9.23;1.50;;;13.90;99.90;;;;;;5020313;28;20385;-84
2022/10/02 00:14:53;;;;;;;7.95;0.70;;;13.80;99.90;;;;;;5019299;28;20378;-82
2022/10/02 00:17:31;;;;;;;4.00;0.70;;;13.80;99.90;;;;;;5019238;28;20112;-84
2022/10/02 00:19:57;;;;;;;4.55;0.60;;;13.80;99.90;;;;;;5019012;28;20017;-83
2022/10/02 00:22:44;;;;;;;7.88;0.80;;;13.70;99.90;;;;;;5036569;28;20022;-86
2022/10/02 00:25:22;;;;;;;5.40;0.73;;;13.70;99.90;;;;;;5036566;28;20105;-83
2022/10/02 00:28:09;;;;;;;10.85;1.38;;;13.60;99.90;;;;;;5036739;28;20018;-84
2022/10/02 00:30:57;;;;;;;5.28;0.90;;;13.60;99.90;;;;;;5035323;28;20025;-83
2022/10/02 00:33:41;;;;;;;6.93;1.05;;;13.50;99.90;;;;;;5035113;28;20029;-83
2022/10/02 00:36:16;;;;;;;6.35;0.73;;;13.40;99.90;;;;;;5018564;28;20033;-84
2022/10/02 00:39:00;;;;;;;5.70;1.05;;;13.40;99.90;;;;;;5018826;28;20021;-82
2022/10/02 00:41:35;;;;;;;4.25;0.75;;;13.40;99.90;;;;;;5049500;28;20060;-85
2022/10/02 00:44:15;;;;;;;6.00;0.95;;;13.30;99.90;;;;;;5038801;28;20025;-85
2022/10/02 00:46:56;;;;;;;4.90;0.57;;;13.30;99.90;;;;;;5038616;28;20124;-87
2022/10/02 00:49:22;;;;;;;6.13;0.75;;;13.20;99.90;;;;;;5038131;28;20040;-88
2022/10/02 00:52:05;;;;;;;8.43;1.00;;;13.20;99.90;;;;;;5038785;28;20033;-86
2022/10/02 00:55:24;;;;;;;5.50;0.70;;;13.20;99.90;;;;;;5038259;28;20032;-85
2022/10/02 00:58:17;;;;;;;5.55;0.88;;;13.20;99.90;;;;;;4959042;28;20492;-85
2022/10/02 01:01:04;;;;;;;4.28;0.63;;;13.20;99.90;;;;;;5054773;28;20033;-84
2022/10/02 01:03:55;;;;;;;10.02;1.15;;;13.20;99.90;;;;;;5037908;28;20109;-84
2022/10/02 01:06:26;;;;;;;5.00;0.80;;;13.20;99.90;;;;;;5028653;28;20029;-84
2022/10/02 01:08:55;;;;;;;8.07;1.42;;;13.10;99.90;;;;;;5037819;28;20111;-86
2022/10/02 01:11:23;;;;;;;8.23;1.58;;;13.10;99.90;;;;;;5055023;28;20052;-83
2022/10/02 01:13:50;;;;;;;8.93;1.55;;;13.10;99.90;;;;;;5054741;28;20384;-86
2022/10/02 01:16:22;;;;;;;12.52;2.35;;;13.10;99.90;;;;;;5037316;28;20086;-86
2022/10/02 01:18:50;;;;;;;10.05;1.80;;;13.10;99.90;;;;;;5051567;28;20029;-83
2022/10/02 01:21:28;;;;;;;12.60;2.53;;;13.10;99.90;;;;;;5055686;28;20027;-85
2022/10/02 01:24:11;;;;;;;11.88;3.13;;;13.20;99.90;;;;;;5055512;28;20419;-85
2022/10/02 01:26:37;;;;;;;16.37;2.93;;;13.20;99.90;;;;;;5037723;28;20091;-84
2022/10/02 01:29:06;;;;;;;13.60;3.47;;;13.20;99.90;;;;;;5055623;28;20045;-85
2022/10/02 01:31:33;;;;;;;13.50;4.25;;;13.20;99.90;;;;;;5037353;28;20021;-85
2022/10/02 01:33:59;;;;;;;13.80;4.07;;;13.20;99.90;;;;;;5038355;28;20044;-85
2022/10/02 01:36:25;;;;;;;19.83;4.40;;;13.20;99.90;;;;;;5033421;28;20477;-85
2022/10/02 01:38:52;;;;;;;11.85;4.40;;;13.20;99.90;;;;;;5017672;28;20052;-84
2022/10/02 01:41:18;;;;;;;18.00;5.53;;;13.20;99.90;;;;;;5033653;28;20022;-85
2022/10/02 01:43:49;;;;;;;17.65;5.18;;;13.20;99.90;;;;;;5017652;28;20540;-83
2022/10/02 01:46:38;;;;;;;18.98;5.80;;;13.20;99.90;;;;;;5034464;28;20100;-85
2022/10/02 01:49:26;;;;;;;15.15;5.35;;;13.30;99.90;;;;;;5017687;28;20017;-85
2022/10/02 01:51:54;;;;;;;22.23;7.35;;;13.30;99.90;;;;;;5017508;28;20022;-85
2022/10/02 01:54:47;;;;;;;16.30;6.85;;;13.30;99.90;;;;;;5017729;28;20119;-85
2022/10/02 01:57:40;;;;;;;14.23;5.53;;;13.30;99.90;;;;;;5016744;28;20436;-84
2022/10/02 02:00:10;;;;;;;17.85;5.72;;;13.30;99.90;;;;;;5033399;28;20121;-84
2022/10/02 02:02:42;;;;;;;17.35;6.15;;;13.30;99.90;;;;;;5017075;28;20025;-84
2022/10/02 02:05:13;;;;;;;13.07;6.32;;;13.40;99.90;;;;;;5017017;28;20026;-84
2022/10/02 02:08:00;;;;;;;27.75;8.02;;;13.40;99.90;;;;;;5016815;28;20035;-84
2022/10/02 02:10:54;;;;;;;22.10;8.02;;;13.40;99.90;;;;;;5017145;28;20326;-85
2022/10/02 02:13:20;;;;;;;;;;;13.40;99.90;;;;;;5033799;28;20036;-87
2022/10/02 02:16:03;;;;;;;18.10;7.03;;;13.40;99.90;;;;;;5017013;28;19905;-87
2022/10/02 02:18:33;;;;;;;24.75;7.80;;;13.40;99.90;;;;;;5033803;28;20051;-87
2022/10/02 02:21:07;;;;;;;18.05;7.53;;;13.40;99.90;;;;;;5016547;28;20052;-85
2022/10/02 02:23:37;;;;;;;16.73;7.13;;;13.40;99.90;;;;;;5033100;28;20017;-85
2022/10/02 02:26:07;;;;;;;19.98;7.82;;;13.40;99.90;;;;;;5016387;28;20029;-84
2022/10/02 02:28:35;;;;;;;18.90;7.63;;;13.40;99.90;;;;;;5031977;28;20461;-87
2022/10/02 02:31:01;;;;;;;18.25;7.38;;;13.40;99.90;;;;;;5033190;28;20025;-84
2022/10/02 02:33:39;;;;;;;21.30;8.10;;;13.50;99.90;;;;;;5034166;28;20029;-84
2022/10/02 02:36:12;;;;;;;23.45;8.15;;;13.40;99.90;;;;;;5032870;28;20030;-85
2022/10/02 02:38:50;;;;;;;21.13;6.60;;;13.40;99.90;;;;;;5032831;28;20028;-85
2022/10/02 02:41:23;;;;;;;23.95;7.45;;;13.40;99.90;;;;;;5032858;28;20051;-85
2022/10/02 02:44:04;;;;;;;20.55;6.38;;;13.30;99.90;;;;;;5034063;28;20100;-85
2022/10/02 02:49:28;;;;;;;20.77;7.10;;;13.40;99.90;;;;;;5035526;28;20436;-85
2022/10/02 02:51:58;;;;;;;19.42;7.13;;;13.50;99.90;;;;;;5033381;28;20024;-87
2022/10/02 02:54:44;;;;;;;14.32;5.30;;;13.40;99.90;;;;;;5033794;28;20033;-86
2022/10/02 02:57:11;;;;;;;18.70;5.22;;;13.30;99.90;;;;;;5033443;28;20028;-85
2022/10/02 02:59:39;;;;;;;25.73;5.90;;;13.40;99.90;;;;;;5029749;28;20030;-86
2022/10/02 03:02:05;;;;;;;23.67;5.90;;;13.30;99.90;;;;;;5029559;28;20486;-85
2022/10/02 03:04:31;;;;;;;24.75;4.95;;;13.30;99.90;;;;;;5029362;28;20041;-86
2022/10/02 03:07:01;;;;;;;18.63;5.63;;;13.30;99.90;;;;;;5029268;28;20406;-87
2022/10/02 03:09:31;;;;;;;20.90;5.30;;;13.30;99.90;;;;;;5030039;28;20120;-85
2022/10/02 03:12:28;;;;;;;19.80;5.20;;;13.20;99.90;;;;;;5012950;28;20030;-87
2022/10/02 03:15:55;;;;;;;18.20;4.18;;;13.20;99.90;;;;;;5012696;28;20049;-87
2022/10/02 03:18:39;;;;;;;15.30;4.45;;;13.20;99.90;;;;;;4958321;28;20045;-86
2022/10/02 03:21:14;;;;;;;23.77;4.60;;;13.20;99.90;;;;;;5012571;28;20069;-86
2022/10/02 03:23:53;;;;;;;21.88;3.75;;;13.10;99.90;;;;;;5012822;28;20040;-86
2022/10/02 03:26:32;;;;;;;17.08;3.97;;;13.20;99.90;;;;;;5013235;28;20029;-87
2022/10/02 03:29:01;;;;;;;18.90;4.03;;;13.10;99.90;;;;;;5013212;28;20467;-87
2022/10/02 03:31:31;;;;;;;19.52;4.10;;;13.10;99.90;;;;;;5013919;28;20033;-87
2022/10/02 03:33:59;;;;;;;23.70;4.10;;;13.20;99.90;;;;;;5012926;28;20032;-86
2022/10/02 03:36:25;;;;;;;22.55;4.25;;;13.10;99.90;;;;;;5012642;28;20022;-87
2022/10/02 03:38:56;;;;;;;21.15;4.05;;;13.10;99.90;;;;;;5012496;28;20026;-86
2022/10/02 03:41:22;;;;;;;20.73;3.75;;;13.00;99.90;;;;;;5015948;28;20026;-85
2022/10/02 03:43:48;;;;;;;17.15;3.65;;;13.10;99.90;;;;;;5000563;28;20264;-86
2022/10/02 03:46:33;;;;;;;19.55;3.53;;;13.00;99.90;;;;;;5016853;28;20032;-87
2022/10/02 03:48:59;;;;;;;18.80;3.53;;;13.00;99.90;;;;;;5016981;28;20026;-86
2022/10/02 03:51:39;;;;;;;16.08;3.25;;;13.10;99.90;;;;;;5000955;28;20537;-88
2022/10/02 03:54:15;;;;;;;15.02;2.40;;;13.10;99.90;;;;;;5002575;28;20033;-87
2022/10/02 03:57:09;;;;;;;29.75;3.97;;;13.00;99.90;;;;;;5016827;28;20022;-87
2022/10/02 03:59:56;;;;;;;17.75;2.95;;;13.10;99.90;;;;;;5016674;28;20053;-88
2022/10/02 04:02:42;;;;;;;13.38;2.42;;;13.10;99.90;;;;;;5016366;28;20029;-87
2022/10/02 04:08:44;;;;;;;17.25;3.40;;;13.00;99.90;;;;;;5017817;28;20033;-88
2022/10/02 04:11:32;;;;;;;18.52;2.88;;;13.00;99.90;;;;;;5016857;28;20466;-87
2022/10/02 04:14:32;;;;;;;25.00;4.35;;;13.00;99.90;;;;;;5016498;28;20470;-86
2022/10/02 04:17:10;;;;;;;22.27;3.33;;;13.00;99.90;;;;;;5009469;28;20033;-88
2022/10/02 04:19:47;;;;;;;17.65;3.90;;;13.00;99.90;;;;;;5026560;28;20033;-86
2022/10/02 04:22:20;;;;;;;16.92;3.38;;;13.00;99.90;;;;;;5052952;28;20117;-86
2022/10/02 04:24:59;;;;;;;17.30;4.13;;;12.90;99.90;;;;;;5052326;28;20026;-87
2022/10/02 04:27:46;;;;;;;23.58;3.92;;;12.90;99.90;;;;;;5051985;28;20026;-87
2022/10/02 04:30:20;;;;;;;26.33;4.55;;;12.90;99.90;;;;;;5022289;28;20029;-87
2022/10/02 04:32:46;;;;;;;19.97;4.33;;;12.90;99.90;;;;;;5035945;28;20049;-88
2022/10/02 04:35:16;;;;;;;18.85;3.92;;;12.90;99.90;;;;;;5035689;28;20032;-87
2022/10/02 04:38:01;;;;;;;26.88;4.45;;;12.90;99.90;;;;;;5036275;28;20095;-88
2022/10/02 04:40:26;;;;;;;25.80;4.47;;;12.90;99.90;;;;;;5037047;28;20079;-88
2022/10/02 04:43:13;;;;;;;27.42;4.80;;;12.90;99.90;;;;;;5035628;28;20037;-88
2022/10/02 04:45:55;;;;;;;29.55;6.03;;;12.90;99.90;;;;;;5035158;28;20030;-87
2022/10/02 04:48:38;;;;;;;29.38;5.93;;;12.90;99.90;;;;;;5052309;28;20021;-87
2022/10/02 04:51:38;;;;;;;26.08;5.30;;;12.90;99.90;;;;;;5051757;28;20029;-87
2022/10/02 04:54:48;;;;;;;21.50;4.22;;;12.90;99.90;;;;;;5051855;28;20128;-87
2022/10/02 04:57:14;;;;;;;27.75;5.38;;;12.90;99.90;;;;;;5035517;28;20037;-87
2022/10/02 05:00:07;;;;;;;29.67;5.63;;;12.90;99.90;;;;;;5038162;28;20082;-87
2022/10/02 05:02:46;;;;;;;29.47;6.10;;;12.80;99.90;;;;;;5038528;28;20033;-86
2022/10/02 05:05:46;;;;;;;25.23;5.10;;;12.80;99.90;;;;;;5038853;28;20029;-87
2022/10/02 05:08:39;;;;;;;28.38;6.90;;;12.80;99.90;;;;;;5038846;28;20524;-87
2022/10/02 05:11:25;;;;;;;27.58;4.85;;;12.80;99.90;;;;;;5038183;28;20116;-86
2022/10/02 05:14:15;;;;;;;23.88;4.68;;;12.80;99.90;;;;;;5038150;28;20036;-88
2022/10/02 05:16:59;;;;;;;20.55;4.95;;;12.80;99.90;;;;;;5038178;28;20051;-87
2022/10/02 05:19:47;;;;;;;24.60;6.18;;;12.80;99.90;;;;;;5038334;28;20033;-87
2022/10/02 05:22:27;;;;;;;21.80;5.00;;;12.80;99.90;;;;;;5056297;28;20037;-86
2022/10/02 05:25:21;;;;;;;27.42;5.50;;;12.80;99.90;;;;;;5038582;28;20388;-88
2022/10/02 05:28:12;;;;;;;24.13;4.60;;;12.80;99.90;;;;;;5038591;28;20028;-87
2022/10/02 05:30:50;;;;;;;28.13;5.50;;;12.70;99.90;;;;;;5037938;28;20042;-87
2022/10/02 05:33:31;;;;;;;24.75;4.22;;;12.80;99.90;;;;;;5038245;28;20075;-87
2022/10/02 05:36:17;;;;;;;19.38;5.68;;;12.80;99.90;;;;;;5038213;28;20067;-86
2022/10/02 05:39:17;;;;;;;26.95;4.97;;;12.80;99.90;;;;;;5054671;28;20551;-86
2022/10/02 05:41:55;;;;;;;23.08;6.63;;;12.80;99.90;;;;;;5038198;28;20032;-86
2022/10/02 05:44:39;;;;;;;20.83;4.43;;;12.80;99.90;;;;;;5055077;28;20469;-87
2022/10/02 05:47:20;;;;;;;21.83;5.18;;;12.80;99.90;;;;;;5055267;28;20037;-87
2022/10/02 05:50:09;;;;;;;22.13;4.57;;;12.70;99.90;;;;;;5044011;28;20029;-86
2022/10/02 05:52:52;;;;;;;22.95;4.68;;;12.70;99.90;;;;;;5025902;28;20029;-87
2022/10/02 05:55:31;;;;;;;24.77;5.55;;;12.70;99.90;;;;;;5038171;28;20083;-87
2022/10/02 05:58:11;;;;;;;24.38;4.88;;;12.70;99.90;;;;;;5037288;28;20152;-88
2022/10/02 06:00:52;;;;;;;20.02;4.55;;;12.70;99.90;;;;;;5037649;28;20076;-86
2022/10/02 06:03:37;;;;;;;25.42;4.40;;;12.70;99.90;;;;;;5037093;28;20029;-85
2022/10/02 06:06:11;;;;;;;19.52;4.00;;;12.70;99.90;;;;;;5054639;28;20025;-85
2022/10/02 06:08:48;;;;;;;19.38;3.75;;;12.70;99.90;;;;;;5037416;28;20122;-85
2022/10/02 06:12:01;;;;;;;23.30;4.32;;;12.70;99.90;;;;;;5036660;28;20526;-87
2022/10/02 06:14:47;;;;;;;17.27;3.83;;;12.90;99.90;;;;;;5016857;28;20057;-87
2022/10/02 06:17:23;;;;;;;19.25;4.85;;;12.90;99.90;;;;;;5036467;28;20083;-87
2022/10/02 06:20:18;;;;;;;17.58;3.60;;;12.90;99.90;;;;;;5036859;28;20025;-85
2022/10/02 06:22:54;;;;;;;17.23;4.05;;;12.90;99.90;;;;;;5036761;28;20037;-85
2022/10/02 06:25:32;;;;;;;15.55;3.58;;;13.00;99.90;;;;;;5037059;28;20108;-85
2022/10/02 06:28:16;;;;;;;18.40;3.72;;;13.00;99.90;;;;;;5032066;28;20017;-86
2022/10/02 06:30:46;;;;;;;18.20;4.03;;;13.10;99.90;;;;;;5036618;28;20040;-87
2022/10/02 06:33:29;;;;;;;16.67;3.92;;;13.10;99.90;;;;;;5053013;28;20469;-87
2022/10/02 06:36:22;;;;;;;18.30;3.92;;;13.20;99.90;;;;;;5037320;28;20036;-87
2022/10/02 06:39:01;;;;;;;17.70;3.42;;;13.20;99.90;;;;;;5053145;28;20025;-87
2022/10/02 06:41:48;;;;;;;16.75;4.20;;;13.20;99.90;;;;;;5053322;28;20035;-87
2022/10/02 06:44:26;;;;;;;19.23;3.33;;;13.20;99.90;;;;;;5053482;28;20029;-86
2022/10/02 06:47:07;;;;;;;12.52;3.53;;;13.30;99.90;;;;;;5036605;28;20075;-85
2022/10/02 06:50:03;;;;;;;17.40;3.33;;;13.30;99.90;;;;;;5053437;28;20032;-87
2022/10/02 06:52:57;;;;;;;14.50;3.50;;;13.30;99.90;;;;;;5040170;28;20082;-87
2022/10/02 06:55:49;;;;;;;18.55;3.90;;;13.40;99.90;;;;;;5036194;28;20036;-86
2022/10/02 06:59:02;;;;;;;18.65;3.65;;;13.40;99.90;;;;;;5036397;28;20065;-88
2022/10/02 07:08:52;;;;;;;14.30;3.35;;;13.30;99.90;;;;;;5054266;28;20024;-88
2022/10/02 07:11:43;;;;;;;16.42;3.85;;;13.50;99.90;;;;;;5036697;28;20025;-88
2022/10/02 07:14:46;;;;;;;12.90;2.40;;;13.60;99.90;;;;;;5035943;28;20025;-88
2022/10/02 07:17:44;;;;;;;12.65;2.40;;;13.60;99.90;;;;;;5016322;28;20029;-87
2022/10/02 07:20:35;;;;;;;13.80;2.45;;;13.70;99.90;;;;;;4983874;28;20048;-87
2022/10/02 07:23:49;;;;;;;14.05;2.47;;;13.70;99.90;;;;;;5032818;28;20025;-86
2022/10/02 07:26:42;;;;;;;15.93;3.13;;;13.70;99.90;;;;;;4938946;29;20035;-87
2022/10/02 07:29:26;;;;;;;17.13;3.22;;;13.80;99.90;;;;;;4954593;29;20031;-80
2022/10/02 07:32:12;;;;;;;18.33;2.95;;;13.90;99.90;;;;;;5031952;28;20036;-82
2022/10/02 07:34:53;;;;;;;17.00;3.08;;;13.90;99.90;;;;;;5015069;28;20037;-81
2022/10/02 07:37:41;;;;;;;14.02;2.90;;;14.00;99.90;;;;;;5033291;28;20036;-81
2022/10/02 07:40:34;;;;;;;14.23;2.95;;;14.10;99.90;;;;;;5034074;28;20022;-82
2022/10/02 07:43:24;;;;;;;14.45;2.90;;;14.10;99.90;;;;;;5032136;28;20025;-84
2022/10/02 07:46:08;;;;;;;13.18;2.78;;;14.20;99.90;;;;;;5032097;28;20025;-82
2022/10/02 07:48:58;;;;;;;12.30;2.60;;;14.30;99.90;;;;;;5031901;28;20040;-83
2022/10/02 07:51:49;;;;;;;18.33;2.50;;;14.40;99.90;;;;;;5031854;28;20067;-82
2022/10/02 07:54:38;;;;;;;12.32;2.05;;;14.50;99.90;;;;;;5031720;28;20036;-83
2022/10/02 07:57:36;;;;;;;12.85;2.17;;;14.50;99.90;;;;;;5032139;28;20021;-83
2022/10/02 08:00:12;;;;;;;16.23;2.42;;;14.60;99.90;;;;;;5026079;28;20045;-82
2022/10/02 08:03:21;;;;;;;14.57;3.13;;;14.60;99.90;;;;;;5032089;28;20464;-84
2022/10/02 08:05:55;;;;;;;15.32;3.13;;;14.70;99.90;;;;;;4949218;28;20031;-83
2022/10/02 08:08:30;;;;;;;15.10;2.03;;;14.80;99.90;;;;;;5009440;28;20036;-82
2022/10/02 08:11:08;;;;;;;16.67;2.25;;;14.80;99.90;;;;;;5015203;28;20029;-83
2022/10/02 08:13:44;;;;;;;12.00;2.25;;;14.80;99.90;;;;;;5015477;28;20075;-83
2022/10/02 08:16:13;;;;;;;16.27;2.58;;;14.90;99.90;;;;;;5015426;28;20044;-83
2022/10/02 08:18:50;;;;;;;13.45;2.20;;;15.00;99.90;;;;;;5007177;28;20123;-82
2022/10/02 08:21:19;;;;;;;16.42;3.67;;;15.00;99.90;;;;;;5034824;28;20388;-80
2022/10/02 08:24:05;;;;;;;10.50;1.80;;;15.10;99.90;;;;;;5035524;28;20028;-83
2022/10/02 08:26:41;;;;;;;12.20;1.90;;;15.00;99.90;;;;;;5036542;28;20132;-83
2022/10/02 08:29:10;;;;;;;13.10;1.80;;;15.20;99.90;;;;;;5039182;28;20108;-82
2022/10/02 08:31:45;;;;;;;15.15;2.13;;;15.40;99.90;;;;;;5038437;28;20431;-84
2022/10/02 08:34:22;;;;;;;16.95;2.03;;;15.40;99.90;;;;;;5038820;28;20116;-80
2022/10/02 08:37:02;;;;;;;17.88;2.15;;;15.50;99.90;;;;;;5056435;28;20092;-83
2022/10/02 08:39:52;;;;;;;14.32;2.38;;;15.60;99.90;;;;;;5039029;28;20029;-84
2022/10/02 08:42:39;;;;;;;15.18;2.05;;;15.60;99.90;;;;;;5056233;28;20159;-82
2022/10/02 08:45:39;;;;;;;14.73;2.65;;;15.70;99.90;;;;;;5037219;28;20029;-84
2022/10/02 08:49:00;;;;;;;15.77;2.33;;;15.80;99.90;;;;;;5038238;28;20031;-83
2022/10/02 08:51:32;;;;;;;13.30;2.22;;;15.80;99.90;;;;;;4939917;29;20126;-83
2022/10/02 08:54:31;;;;;;;12.80;1.95;;;15.90;99.90;;;;;;5005505;28;20133;-83
2022/10/02 08:57:21;;;;;;;8.18;1.50;;;16.00;99.90;;;;;;5034895;28;20075;-81
2022/10/02 09:00:11;;;;;;;13.70;1.77;;;16.00;99.90;;;;;;5031634;28;20100;-83
2022/10/02 09:02:45;;;;;;;12.43;2.22;;;16.10;99.90;;;;;;5031699;28;20096;-84
2022/10/02 09:05:51;;;;;;;9.18;1.30;;;16.10;99.90;;;;;;5031532;28;20037;-83
2022/10/02 09:08:28;;;;;;;15.80;1.90;;;16.20;99.90;;;;;;5031991;28;20522;-85
2022/10/02 09:11:35;;;;;;;10.27;1.77;;;16.30;99.90;;;;;;5031633;28;20042;-84
2022/10/02 09:14:52;;;;;;;9.00;1.33;;;16.40;99.90;;;;;;5030990;28;20058;-80
2022/10/02 09:17:31;;;;;;;13.52;1.77;;;16.50;99.90;;;;;;5014370;28;20026;-86
2022/10/02 09:20:33;;;;;;;16.38;2.85;;;16.50;99.90;;;;;;5031337;28;20069;-84
2022/10/02 09:23:20;;;;;;;7.90;1.50;;;16.60;99.90;;;;;;5016115;28;20394;-82
2022/10/02 09:25:52;;;;;;;14.13;1.58;;;16.70;99.90;;;;;;5031654;28;20378;-84
2022/10/02 09:28:51;;;;;;;12.43;1.52;;;16.80;99.90;;;;;;5031207;28;20116;-83
2022/10/02 09:31:39;;;;;;;11.60;2.00;;;16.80;99.90;;;;;;5031218;28;20026;-81
2022/10/02 09:34:22;;;;;;;14.13;1.73;;;16.90;99.90;;;;;;5014783;28;20026;-82
2022/10/02 09:37:16;;;;;;;11.98;2.17;;;17.00;99.90;;;;;;5030817;28;20446;-81
2022/10/02 09:40:12;;;;;;;15.27;1.80;;;17.10;99.60;;;;;;5014193;28;20049;-84
2022/10/02 09:42:47;;;;;;;11.27;1.75;;;17.20;99.60;;;;;;5031201;28;20037;-81
2022/10/02 09:45:37;;;;;;;15.82;1.48;;;17.30;99.20;;;;;;5030546;28;20390;-83
2022/10/02 09:48:09;;;;;;;9.80;1.38;;;17.40;98.60;;;;;;5030630;28;20451;-83
2022/10/02 09:51:12;;;;;;;10.10;1.63;;;17.50;98.60;;;;;;5030544;28;20490;-81
2022/10/02 09:54:17;;;;;;;7.00;1.42;;;17.70;97.90;;;;;;5031373;28;20038;-82
2022/10/02 09:57:20;;;;;;;9.85;1.67;;;18.00;98.00;;;;;;5013782;28;20044;-83
2022/10/02 09:59:57;;;;;;;9.10;1.95;;;18.20;97.30;;;;;;5030319;28;20042;-81
2022/10/02 10:02:35;;;;;;;10.15;1.60;;;18.30;96.00;;;;;;5014080;28;20046;-81
2022/10/02 10:05:32;;;;;;;11.65;1.92;;;18.30;94.50;;;;;;5030522;28;20026;-82
2022/10/02 10:08:35;;;;;;;12.05;1.55;;;18.40;94.00;;;;;;5030503;28;20477;-82
2022/10/02 10:11:29;;;;;;;8.98;1.23;;;18.60;93.80;;;;;;5013908;28;20080;-85
2022/10/02 10:14:32;;;;;;;14.10;1.73;;;18.70;93.20;;;;;;5030456;28;20589;-81
2022/10/02 10:17:20;;;;;;;9.65;1.63;;;18.80;92.40;;;;;;4993702;28;20037;-81
2022/10/02 10:20:10;;;;;;;9.70;1.80;;;18.80;92.00;;;;;;5030255;28;20036;-82
2022/10/02 10:22:56;;;;;;;14.82;1.83;;;18.60;91.10;;;;;;5014585;28;20025;-81
2022/10/02 10:25:49;;;;;;;13.43;2.13;;;18.50;90.30;;;;;;5030230;28;20363;-80
2022/10/02 10:28:44;;;;;;;10.85;2.08;;;18.30;89.80;;;;;;5015198;28;20049;-81
2022/10/02 10:31:28;;;;;;;9.05;1.50;;;18.20;88.80;;;;;;5015171;28;20076;-81
2022/10/02 10:34:16;;;;;;;11.05;1.77;;;18.10;87.80;;;;;;5041333;28;20033;-79
2022/10/02 10:39:46;;;;;;;11.57;1.40;;;17.90;87.20;;;;;;5034916;28;20104;-83
2022/10/02 10:42:23;;;;;;;10.88;1.35;;;17.90;86.80;;;;;;5033499;28;20025;-80
2022/10/02 10:45:01;;;;;;;11.02;1.58;;;17.80;86.30;;;;;;5033158;28;20033;-83
2022/10/02 10:47:51;;;;;;;12.50;1.73;;;17.80;86.20;;;;;;5032985;28;20497;-81
2022/10/02 10:50:35;;;;;;;10.13;1.85;;;17.70;86.00;;;;;;5048603;28;20486;-82
2022/10/02 10:53:32;;;;;;;11.45;1.20;;;17.60;85.90;;;;;;5050252;28;20036;-82
2022/10/02 10:56:35;;;;;;;8.55;1.00;;;17.60;85.80;;;;;;5049239;28;20049;-82
2022/10/02 10:59:20;;;;;;;10.77;1.55;;;17.50;85.40;;;;;;5049536;28;20095;-79
2022/10/02 11:02:18;;;;;;;8.70;1.20;;;17.50;85.10;;;;;;5034315;28;20032;-80
2022/10/02 11:05:05;;;;;;;11.40;1.45;;;17.50;85.50;;;;;;5034180;28;20037;-83
2022/10/02 11:07:45;;;;;;;12.07;1.95;;;17.50;84.90;;;;;;5032909;28;20026;-80
2022/10/02 11:10:43;;;;;;;9.15;1.10;;;17.50;84.90;;;;;;5033276;28;20082;-79
2022/10/02 11:13:46;;;;;;;12.35;1.08;;;17.50;84.60;;;;;;5032077;28;20139;-80
2022/10/02 11:16:20;;;;;;;9.35;1.30;;;17.50;84.60;;;;;;5032773;28;20029;-81
2022/10/02 11:19:14;;;;;;;8.90;1.05;;;17.50;84.10;;;;;;5032865;28;20120;-81
2022/10/02 11:22:01;;;;;;;6.95;1.08;;;17.50;84.70;;;;;;5032519;28;20043;-81
2022/10/02 11:25:01;;;;;;;9.85;0.93;;;17.60;85.40;;;;;;5032443;28;20026;-82
2022/10/02 11:27:45;;;;;;;8.93;0.77;;;17.90;86.10;;;;;;5027898;28;20044;-82
2022/10/02 11:30:28;;;;;;;10.23;1.25;;;18.20;85.80;;;;;;5024615;28;20030;-80
2022/10/02 11:33:23;;;;;;;6.07;1.23;;;18.30;83.60;;;;;;5029044;28;20051;-80
2022/10/02 11:35:59;;;;;;;3.78;0.90;;;18.40;81.90;;;;;;5010234;28;20029;-82
2022/10/02 11:39:03;;;;;;;7.18;1.88;;;18.40;80.10;;;;;;5040311;28;20029;-80
2022/10/02 11:42:04;;;;;;;4.97;0.80;;;18.40;78.90;;;;;;5033154;28;20034;-82
2022/10/02 11:45:16;;;;;;;6.60;1.10;;;18.40;79.10;;;;;;5048628;28;20429;-82
2022/10/02 11:47:48;;;;;;;10.00;1.35;;;18.40;79.50;;;;;;5049547;28;20017;-79
2022/10/02 11:50:38;;;;;;;7.55;1.45;;;18.60;80.10;;;;;;5048918;28;20492;-81
2022/10/02 11:53:13;;;;;;;13.02;1.33;;;19.00;79.70;;;;;;5048905;28;20390;-80
2022/10/02 11:56:06;;;;;;;9.45;1.55;;;19.20;79.10;;;;;;5041422;28;20033;-79
2022/10/02 11:58:47;;;;;;;10.20;1.50;;;19.20;77.10;;;;;;5031607;28;20050;-81
2022/10/02 12:01:16;;;;;;;6.60;0.93;;;19.20;76.30;;;;;;5035667;28;20758;-82
2022/10/02 12:03:53;;;;;;;9.45;1.25;;;19.10;76.60;;;;;;5053076;28;20033;-80
2022/10/02 12:07:03;;;;;;;8.85;1.63;;;19.20;76.50;;;;;;5037970;28;20028;-80
2022/10/02 12:09:56;;;;;;;8.15;1.27;;;19.40;76.80;;;;;;5024791;28;20040;-80
2022/10/02 12:13:08;;;;;;;7.30;0.95;;;19.60;74.40;;;;;;5037275;28;20025;-77
2022/10/02 12:15:40;;;;;;;7.38;1.00;;;19.50;73.80;;;;;;5032945;28;20434;-78
2022/10/02 12:18:30;;;;;;;10.57;1.27;;;19.30;74.40;;;;;;5036867;28;20037;-78
2022/10/02 12:26:59;;;;;;;6.22;1.15;;;20.60;77.30;;;;;;5036478;28;20148;-78
2022/10/02 12:29:43;;;;;;;8.90;1.20;;;21.30;76.60;;;;;;5051836;28;20026;-77
2022/10/02 12:32:35;;;;;;;6.25;0.85;;;21.90;75.80;;;;;;5036343;28;20024;-79
2022/10/02 12:35:24;;;;;;;5.93;0.90;;;22.40;73.40;;;;;;5052176;28;20025;-78
2022/10/02 12:38:19;;;;;;;5.80;0.95;;;23.20;67.90;;;;;;5052217;28;20032;-76
2022/10/02 12:41:02;;;;;;;8.15;1.00;;;23.70;65.90;;;;;;5031869;28;20116;-79
2022/10/02 12:43:33;;;;;;;5.78;1.20;;;24.40;62.60;;;;;;5051488;28;20075;-75
2022/10/02 12:46:12;;;;;;;8.52;0.95;;;25.00;60.00;;;;;;5036187;28;20424;-75
2022/10/02 12:48:44;;;;;;;8.95;1.00;;;25.30;57.00;;;;;;5036060;28;20434;-76
2022/10/02 12:51:19;;;;;;;7.05;1.20;;;25.70;55.00;;;;;;5051557;28;20060;-75
2022/10/02 12:54:38;;;;;;;6.07;1.13;;;25.50;53.00;;;;;;5051460;28;20033;-77
2022/10/02 13:00:15;;;;;;;8.57;1.55;;;24.70;53.20;;;;;;5016202;28;20045;-77
2022/10/02 13:03:04;;;;;;;5.82;1.05;;;24.90;53.60;;;;;;5015024;28;20546;-77
2022/10/02 13:06:02;;;;;;;4.85;1.10;;;25.10;53.50;;;;;;5031479;28;20425;-78
2022/10/02 13:08:40;;;;;;;6.80;1.05;;;25.40;53.50;;;;;;5031628;28;20080;-76
2022/10/02 13:11:08;;;;;;;6.78;0.90;;;25.60;52.10;;;;;;5031504;28;20452;-79
2022/10/02 13:14:03;;;;;;;6.60;0.93;;;25.40;51.10;;;;;;5030394;28;20029;-78
2022/10/02 13:16:55;;;;;;;5.55;0.80;;;25.20;50.80;;;;;;5016353;28;20065;-76
2022/10/02 13:19:48;;;;;;;8.63;1.40;;;25.20;51.60;;;;;;5031161;28;20029;-78
2022/10/02 13:22:51;;;;;;;6.07;1.20;;;25.50;52.50;;;;;;5027316;28;20029;-77
2022/10/02 13:25:31;;;;;;;8.48;1.33;;;26.00;51.50;;;;;;5034741;28;20040;-79
2022/10/02 13:28:24;;;;;;;8.73;1.50;;;26.30;51.00;;;;;;5034535;28;20113;-79
2022/10/02 13:30:58;;;;;;;8.57;1.30;;;26.20;49.40;;;;;;5034188;28;20061;-79
2022/10/02 13:33:33;;;;;;;6.40;1.30;;;26.30;50.50;;;;;;5034841;28;20021;-79
2022/10/02 13:36:13;;;;;;;5.60;1.27;;;26.70;50.30;;;;;;5034759;28;20473;-80
2022/10/02 13:39:06;;;;;;;8.35;1.33;;;27.10;50.00;;;;;;5034568;28;20033;-78
2022/10/02 13:41:43;;;;;;;8.50;1.40;;;27.60;49.00;;;;;;5034209;28;20034;-78
2022/10/02 13:44:57;;;;;;;8.25;1.50;;;27.70;48.20;;;;;;5035498;28;20048;-78
2022/10/02 13:47:39;;;;;;;8.13;0.95;;;27.60;47.50;;;;;;4977594;28;20038;-81
2022/10/02 13:50:23;;;;;;;6.07;0.90;;;27.30;46.10;;;;;;5029001;28;20030;-78
2022/10/02 13:53:03;;;;;;;;;;;27.40;46.50;;;;;;5034795;28;20120;-77
2022/10/02 13:55:36;;;;;;;6.55;1.17;;;27.50;46.10;;;;;;5035715;28;19916;-77
2022/10/02 13:58:13;;;;;;;5.30;0.90;;;27.80;46.20;;;;;;5036837;28;20056;-78
2022/10/02 14:00:48;;;;;;;6.90;1.00;;;27.90;45.70;;;;;;5055155;28;20028;-78
2022/10/02 14:03:32;;;;;;;6.05;0.95;;;27.80;45.70;;;;;;5037359;28;20021;-77
2022/10/02 14:06:22;;;;;;;3.63;0.70;;;27.60;46.10;;;;;;5038325;28;20048;-78
2022/10/02 14:09:25;;;;;;;6.80;1.15;;;27.70;46.60;;;;;;5033542;28;20063;-77
2022/10/02 14:11:59;;;;;;;9.10;0.98;;;28.00;46.70;;;;;;5017143;28;20033;-78
2022/10/02 14:14:30;;;;;;;;;;;28.30;46.50;;;;;;5034236;28;20466;-79
2022/10/02 14:17:20;;;;;;;9.40;1.50;;;28.40;45.70;;;;;;5017204;28;19905;-78
2022/10/02 14:20:01;;;;;;;7.10;1.30;;;28.50;45.70;;;;;;5039743;28;20028;-77
2022/10/02 14:22:45;;;;;;;7.22;1.27;;;28.60;45.40;;;;;;5036757;28;20027;-79
2022/10/02 14:25:21;;;;;;;9.43;1.10;;;28.60;45.10;;;;;;5037061;28;20020;-78
2022/10/02 14:28:25;;;;;;;6.07;1.00;;;28.60;44.80;;;;;;5036935;28;20101;-77
2022/10/02 14:30:58;;;;;;;5.75;1.00;;;28.40;44.00;;;;;;5049564;28;20017;-79